Time;durP1;ratioP1;P1;durP2;ratioP2;P2;SDS_P1;SDS_P2;PMS_P1;PMS_P2;Temp;Humidity;BMP_temperature;BMP_pressure;BME280_temperature;BME280_humidity;BME280_pressure;Samples;Min_cycle;Max_cycle;Signal;HPM_P1;HPM_P2
2022/11/11 00:00:00;;;;;;;10.23;5.30;;;;;;;;;;6198538;23;20016;-83
2022/11/11 00:02:27;;;;;;;7.82;5.25;;;;;;;;;;6197516;23;20009;-81
2022/11/11 00:04:53;;;;;;;10.45;5.25;;;;;;;;;;6197129;23;20004;-81
2022/11/11 00:07:19;;;;;;;7.55;4.68;;;;;;;;;;6195941;23;20005;-82
2022/11/11 00:09:45;;;;;;;5.30;3.45;;;;;;;;;;6197895;23;20012;-82
2022/11/11 00:12:11;;;;;;;8.55;3.15;;;;;;;;;;6197770;23;20303;-83
2022/11/11 00:14:37;;;;;;;9.05;4.18;;;;;;;;;;6196096;23;20125;-79
2022/11/11 00:25:18;;;;;;;4.90;3.00;;;;;;;;;;6194487;23;20020;-80
2022/11/11 00:27:44;;;;;;;6.70;3.20;;;;;;;;;;6197599;23;20377;-80
2022/11/11 00:30:10;;;;;;;7.85;3.25;;;;;;;;;;6198016;23;20109;-81
2022/11/11 00:32:36;;;;;;;6.00;3.22;;;;;;;;;;6197455;23;20005;-82
2022/11/11 00:37:47;;;;;;;8.13;3.35;;;;;;;;;;6194918;23;20551;-82
2022/11/11 00:40:14;;;;;;;5.28;3.33;;;;;;;;;;6197395;23;20000;-78
2022/11/11 00:42:40;;;;;;;7.22;3.50;;;;;;;;;;6197073;23;20568;-81
2022/11/11 00:45:07;;;;;;;5.18;3.20;;;;;;;;;;6170631;23;20024;-81
2022/11/11 00:53:15;;;;;;;7.07;3.13;;;;;;;;;;6196932;23;20560;-83
2022/11/11 00:55:41;;;;;;;7.45;2.80;;;;;;;;;;6194844;23;20397;-82
2022/11/11 00:58:07;;;;;;;6.03;2.80;;;;;;;;;;6197970;23;19997;-82
2022/11/11 01:00:33;;;;;;;5.65;3.60;;;;;;;;;;6197165;23;20001;-77
2022/11/11 01:02:59;;;;;;;4.00;3.00;;;;;;;;;;6196375;23;20040;-78
2022/11/11 01:05:26;;;;;;;6.43;3.35;;;;;;;;;;6195934;23;20128;-81
2022/11/11 01:07:52;;;;;;;6.20;3.28;;;;;;;;;;6194681;23;20012;-81
2022/11/11 01:10:38;;;;;;;4.65;3.20;;;;;;;;;;6197137;23;20453;-81
2022/11/11 01:13:23;;;;;;;7.05;3.50;;;;;;;;;;6196278;23;20016;-80
2022/11/11 01:15:51;;;;;;;4.65;3.22;;;;;;;;;;6193457;23;20115;-82
2022/11/11 01:18:21;;;;;;;5.72;3.10;;;;;;;;;;6197298;23;20032;-81
2022/11/11 01:20:48;;;;;;;5.40;3.28;;;;;;;;;;6199615;23;20360;-83
2022/11/11 01:23:14;;;;;;;5.18;3.47;;;;;;;;;;6197440;23;20008;-79
2022/11/11 01:25:42;;;;;;;4.60;3.20;;;;;;;;;;6197566;23;20024;-82
2022/11/11 01:28:08;;;;;;;6.28;3.58;;;;;;;;;;6201345;23;20090;-82
2022/11/11 01:30:35;;;;;;;7.28;3.42;;;;;;;;;;6199856;23;20011;-81
2022/11/11 01:33:02;;;;;;;7.85;3.30;;;;;;;;;;6199658;23;20009;-74
2022/11/11 01:35:28;;;;;;;5.68;3.30;;;;;;;;;;6198791;23;20025;-82
2022/11/11 01:37:56;;;;;;;6.05;3.00;;;;;;;;;;6202066;23;20007;-81
2022/11/11 01:40:22;;;;;;;6.50;4.43;;;;;;;;;;6200979;23;20176;-78
2022/11/11 01:42:51;;;;;;;6.95;2.88;;;;;;;;;;6202570;23;20263;-78
2022/11/11 01:45:36;;;;;;;6.90;3.53;;;;;;;;;;6202320;23;20429;-81
2022/11/11 01:50:47;;;;;;;5.10;3.33;;;;;;;;;;6200259;23;20039;-82
2022/11/11 01:53:14;;;;;;;6.47;3.22;;;;;;;;;;6202635;23;20019;-80
2022/11/11 01:55:40;;;;;;;6.00;3.20;;;;;;;;;;6202168;23;20004;-78
2022/11/11 01:58:08;;;;;;;6.07;3.40;;;;;;;;;;6202728;23;20043;-82
2022/11/11 02:00:34;;;;;;;3.70;2.97;;;;;;;;;;6200205;23;20001;-82
2022/11/11 02:03:05;;;;;;;3.55;3.00;;;;;;;;;;6202670;23;20046;-81
2022/11/11 02:05:41;;;;;;;5.97;3.13;;;;;;;;;;6202888;23;20013;-81
2022/11/11 02:08:33;;;;;;;5.40;3.17;;;;;;;;;;6202477;23;20013;-75
2022/11/11 02:11:05;;;;;;;5.65;3.08;;;;;;;;;;6173291;23;20008;-82
2022/11/11 02:16:16;;;;;;;5.43;4.30;;;;;;;;;;6202196;23;20074;-75
2022/11/11 02:18:42;;;;;;;7.60;4.78;;;;;;;;;;6200525;23;20007;-76
2022/11/11 02:21:12;;;;;;;7.93;4.47;;;;;;;;;;6199212;23;20015;-83
2022/11/11 02:23:48;;;;;;;9.77;4.40;;;;;;;;;;6197731;23;20023;-83
2022/11/11 02:26:15;;;;;;;7.55;3.45;;;;;;;;;;6197476;23;20129;-82
2022/11/11 02:28:42;;;;;;;4.00;3.42;;;;;;;;;;6198828;23;20012;-82
2022/11/11 02:31:08;;;;;;;5.45;3.35;;;;;;;;;;6197515;23;20008;-84
2022/11/11 02:33:35;;;;;;;5.00;3.20;;;;;;;;;;6198051;23;20012;-83
2022/11/11 02:36:01;;;;;;;6.07;3.90;;;;;;;;;;6198478;23;20010;-82
2022/11/11 02:38:28;;;;;;;7.28;3.58;;;;;;;;;;6196660;23;20008;-79
2022/11/11 02:43:39;;;;;;;6.28;3.53;;;;;;;;;;6197956;23;20548;-82
2022/11/11 02:46:06;;;;;;;7.35;4.13;;;;;;;;;;6198317;23;20031;-83
2022/11/11 02:48:33;;;;;;;4.57;3.40;;;;;;;;;;6196632;23;20532;-82
2022/11/11 02:50:59;;;;;;;4.47;3.20;;;;;;;;;;6198970;23;20026;-82
2022/11/11 02:53:25;;;;;;;5.80;3.70;;;;;;;;;;6198744;23;20449;-82
2022/11/11 02:55:51;;;;;;;5.68;3.55;;;;;;;;;;6198067;23;19997;-82
2022/11/11 02:58:17;;;;;;;7.60;4.82;;;;;;;;;;6198714;23;20015;-82
2022/11/11 03:00:43;;;;;;;6.90;4.30;;;;;;;;;;6197923;23;20164;-81
2022/11/11 03:03:10;;;;;;;8.45;4.00;;;;;;;;;;6196038;23;20327;-78
2022/11/11 03:05:36;;;;;;;6.53;3.75;;;;;;;;;;6197905;23;20012;-82
2022/11/11 03:08:02;;;;;;;6.53;3.67;;;;;;;;;;6195883;23;20094;-82
2022/11/11 03:10:29;;;;;;;5.55;3.47;;;;;;;;;;6198435;23;20007;-82
2022/11/11 03:12:56;;;;;;;7.97;4.47;;;;;;;;;;6196410;23;20013;-82
2022/11/11 03:15:22;;;;;;;6.97;4.35;;;;;;;;;;6198331;23;20035;-83
2022/11/11 03:17:48;;;;;;;5.30;3.70;;;;;;;;;;6198637;23;20080;-82
2022/11/11 03:23:03;;;;;;;6.05;4.00;;;;;;;;;;6198177;23;20023;-77
2022/11/11 03:25:39;;;;;;;7.30;3.63;;;;;;;;;;6195900;23;20001;-83
2022/11/11 03:28:12;;;;;;;7.80;3.85;;;;;;;;;;6197991;23;20000;-79
2022/11/11 03:30:40;;;;;;;7.63;3.97;;;;;;;;;;6199003;23;20004;-84
2022/11/11 03:33:06;;;;;;;8.50;4.10;;;;;;;;;;6197800;23;20035;-83
2022/11/11 03:35:32;;;;;;;5.45;3.50;;;;;;;;;;6168790;23;20021;-83
2022/11/11 03:40:43;;;;;;;5.22;3.33;;;;;;;;;;6197814;23;20047;-83
2022/11/11 03:43:10;;;;;;;4.30;3.38;;;;;;;;;;6198783;23;20031;-83
2022/11/11 03:45:36;;;;;;;7.13;3.45;;;;;;;;;;6195826;23;20110;-84
2022/11/11 03:48:02;;;;;;;4.15;3.50;;;;;;;;;;6197837;23;19999;-76
2022/11/11 03:50:29;;;;;;;6.07;3.50;;;;;;;;;;6198804;23;20027;-83
2022/11/11 03:52:55;;;;;;;8.10;3.75;;;;;;;;;;6198144;23;20112;-83
2022/11/11 03:55:21;;;;;;;6.95;3.25;;;;;;;;;;6196674;23;20008;-83
2022/11/11 03:57:47;;;;;;;7.18;3.20;;;;;;;;;;6198342;23;20014;-84
2022/11/11 04:00:23;;;;;;;6.72;3.65;;;;;;;;;;6199064;23;20448;-82
2022/11/11 04:11:10;;;;;;;4.60;3.53;;;;;;;;;;6197277;23;20022;-84
2022/11/11 04:16:21;;;;;;;5.25;3.22;;;;;;;;;;6197791;23;20031;-76
2022/11/11 04:21:44;;;;;;;11.02;3.63;;;;;;;;;;6197525;23;20020;-83
2022/11/11 04:27:14;;;;;;;3.90;2.90;;;;;;;;;;6076564;23;20010;-83
2022/11/11 04:29:40;;;;;;;3.45;3.10;;;;;;;;;;6171064;23;20429;-84
2022/11/11 04:34:53;;;;;;;8.73;3.53;;;;;;;;;;6196712;23;20036;-82
2022/11/11 04:37:20;;;;;;;5.35;3.05;;;;;;;;;;6197525;23;20433;-77
2022/11/11 04:42:32;;;;;;;5.88;3.08;;;;;;;;;;6195869;23;20314;-83
2022/11/11 04:47:57;;;;;;;5.78;3.35;;;;;;;;;;6196880;23;20026;-82
2022/11/11 04:50:24;;;;;;;5.13;3.13;;;;;;;;;;6197446;23;20168;-82
2022/11/11 04:52:50;;;;;;;5.03;3.38;;;;;;;;;;6195428;23;20087;-82
2022/11/11 04:58:02;;;;;;;6.78;3.40;;;;;;;;;;6197095;23;20051;-82
2022/11/11 05:00:28;;;;;;;5.28;3.08;;;;;;;;;;6197713;23;20084;-82
2022/11/11 05:11:19;;;;;;;4.70;3.28;;;;;;;;;;6197110;23;20500;-82
2022/11/11 05:22:08;;;;;;;6.40;3.55;;;;;;;;;;6197442;23;20119;-82
2022/11/11 05:27:21;;;;;;;8.90;3.95;;;;;;;;;;6135435;23;20013;-81
2022/11/11 05:29:47;;;;;;;8.82;4.22;;;;;;;;;;6196485;23;20079;-84
2022/11/11 05:32:20;;;;;;;7.57;4.18;;;;;;;;;;6167816;23;20004;-78
2022/11/11 05:34:47;;;;;;;5.43;3.83;;;;;;;;;;6197282;23;20031;-82
2022/11/11 05:37:13;;;;;;;10.27;3.42;;;;;;;;;;6197269;23;20001;-83
2022/11/11 05:39:39;;;;;;;9.02;3.88;;;;;;;;;;6198155;23;20370;-83
2022/11/11 05:42:05;;;;;;;5.80;3.75;;;;;;;;;;6197790;23;20071;-81
2022/11/11 05:44:31;;;;;;;6.63;3.35;;;;;;;;;;6197579;23;20015;-82
2022/11/11 05:46:57;;;;;;;5.40;4.47;;;;;;;;;;6195115;23;19997;-82
2022/11/11 05:49:24;;;;;;;10.38;4.53;;;;;;;;;;6170135;23;20385;-84
2022/11/11 05:51:51;;;;;;;9.52;4.78;;;;;;;;;;6197766;23;20452;-80
2022/11/11 05:54:17;;;;;;;5.40;4.30;;;;;;;;;;6196337;23;20017;-80
2022/11/11 05:56:44;;;;;;;10.35;3.97;;;;;;;;;;6196659;23;20005;-84
2022/11/11 05:59:10;;;;;;;4.95;3.70;;;;;;;;;;6198202;23;20081;-83
2022/11/11 06:01:37;;;;;;;8.07;3.83;;;;;;;;;;6199325;23;20434;-82
2022/11/11 06:04:04;;;;;;;8.27;3.67;;;;;;;;;;6199703;23;20015;-77
2022/11/11 06:06:30;;;;;;;8.68;3.80;;;;;;;;;;6198449;23;20000;-83
2022/11/11 06:08:56;;;;;;;8.98;4.35;;;;;;;;;;6196950;23;20176;-81
2022/11/11 06:11:22;;;;;;;7.55;4.10;;;;;;;;;;6202089;23;20001;-79
2022/11/11 06:13:49;;;;;;;7.13;4.15;;;;;;;;;;6201811;23;20024;-80
2022/11/11 06:16:15;;;;;;;8.50;4.18;;;;;;;;;;6201537;23;19997;-80
2022/11/11 06:18:41;;;;;;;6.32;3.83;;;;;;;;;;6201545;23;20400;-80
2022/11/11 06:21:07;;;;;;;6.10;3.97;;;;;;;;;;6199677;23;20012;-80
2022/11/11 06:23:34;;;;;;;8.27;3.85;;;;;;;;;;6201213;23;20004;-80
2022/11/11 06:26:12;;;;;;;11.68;4.95;;;;;;;;;;6201494;23;20264;-78
2022/11/11 06:28:45;;;;;;;7.65;4.65;;;;;;;;;;6201430;23;20031;-81
2022/11/11 06:31:16;;;;;;;10.10;4.13;;;;;;;;;;6194245;23;20102;-78
2022/11/11 06:33:42;;;;;;;5.25;4.00;;;;;;;;;;6172364;23;20020;-80
2022/11/11 06:36:10;;;;;;;9.23;3.75;;;;;;;;;;6173681;23;20086;-81
2022/11/11 06:38:36;;;;;;;6.95;3.70;;;;;;;;;;6200271;23;20004;-82
2022/11/11 06:41:02;;;;;;;5.55;3.72;;;;;;;;;;6200037;23;20010;-78
2022/11/11 06:43:29;;;;;;;5.38;4.18;;;;;;;;;;6200150;23;19992;-78
2022/11/11 06:45:55;;;;;;;5.88;3.83;;;;;;;;;;6201413;23;20043;-78
2022/11/11 06:48:22;;;;;;;5.90;3.90;;;;;;;;;;6200665;23;20068;-79
2022/11/11 06:50:48;;;;;;;4.05;3.50;;;;;;;;;;6199999;23;20082;-79
2022/11/11 06:53:15;;;;;;;6.00;4.57;;;;;;;;;;6199302;23;20031;-79
2022/11/11 06:55:41;;;;;;;9.55;3.95;;;;;;;;;;6201050;23;20012;-79
2022/11/11 06:58:18;;;;;;;4.25;3.40;;;;;;;;;;6201477;23;20120;-79
2022/11/11 07:00:45;;;;;;;14.95;6.70;;;;;;;;;;6198874;23;20199;-79
2022/11/11 07:03:13;;;;;;;18.00;7.93;;;;;;;;;;6201364;23;20063;-79
2022/11/11 07:05:39;;;;;;;13.52;7.85;;;;;;;;;;6200850;23;20012;-79
2022/11/11 07:08:06;;;;;;;13.75;8.32;;;;;;;;;;6174822;23;20097;-79
2022/11/11 07:10:33;;;;;;;12.25;9.27;;;;;;;;;;6201531;23;20001;-79
2022/11/11 07:12:59;;;;;;;11.60;9.82;;;;;;;;;;6200552;23;20417;-79
2022/11/11 07:15:26;;;;;;;15.15;10.57;;;;;;;;;;6198689;23;20004;-77
2022/11/11 07:17:52;;;;;;;19.60;12.60;;;;;;;;;;6200887;23;19996;-79
2022/11/11 07:20:18;;;;;;;15.82;10.13;;;;;;;;;;6200982;23;20054;-78
2022/11/11 07:22:44;;;;;;;17.08;10.15;;;;;;;;;;6201552;23;20004;-79
2022/11/11 07:25:10;;;;;;;14.98;11.07;;;;;;;;;;6201042;23;20244;-75
2022/11/11 07:27:37;;;;;;;20.45;13.48;;;;;;;;;;6169294;23;20004;-78
2022/11/11 07:30:04;;;;;;;19.10;13.13;;;;;;;;;;6172011;23;20004;-78
2022/11/11 07:32:30;;;;;;;20.90;13.18;;;;;;;;;;6174297;23;20015;-78
2022/11/11 07:34:56;;;;;;;18.83;12.50;;;;;;;;;;6199940;23;20043;-80
2022/11/11 07:37:23;;;;;;;22.77;12.60;;;;;;;;;;6200554;23;20338;-84
2022/11/11 07:39:49;;;;;;;20.88;12.10;;;;;;;;;;6200767;23;20091;-80
2022/11/11 07:42:15;;;;;;;21.42;12.60;;;;;;;;;;6198653;23;20077;-80
2022/11/11 07:44:41;;;;;;;23.52;13.95;;;;;;;;;;6200611;23;20005;-77
2022/11/11 07:47:08;;;;;;;17.92;12.65;;;;;;;;;;6200172;23;20023;-81
2022/11/11 07:49:34;;;;;;;19.08;12.80;;;;;;;;;;6200251;23;20011;-78
2022/11/11 07:52:00;;;;;;;16.77;11.98;;;;;;;;;;6171297;23;20014;-81
2022/11/11 07:54:26;;;;;;;17.60;11.00;;;;;;;;;;6200237;23;20116;-80
2022/11/11 07:56:52;;;;;;;14.35;10.35;;;;;;;;;;6199808;23;20004;-81
2022/11/11 07:59:19;;;;;;;18.05;9.68;;;;;;;;;;6200256;23;20005;-81
2022/11/11 08:01:45;;;;;;;13.13;9.27;;;;;;;;;;6198110;23;20099;-81
2022/11/11 08:04:11;;;;;;;24.63;11.80;;;;;;;;;;6200678;23;20445;-80
2022/11/11 08:06:37;;;;;;;19.63;12.32;;;;;;;;;;6200087;23;20080;-82
2022/11/11 08:09:03;;;;;;;14.85;10.77;;;;;;;;;;6197330;23;20075;-80
2022/11/11 08:14:15;;;;;;;12.90;9.45;;;;;;;;;;6200571;23;20028;-80
2022/11/11 08:16:41;;;;;;;13.38;8.55;;;;;;;;;;6199235;23;20015;-78
2022/11/11 08:19:07;;;;;;;11.27;8.60;;;;;;;;;;6199567;23;20027;-79
2022/11/11 08:21:33;;;;;;;13.10;9.70;;;;;;;;;;6198767;23;20422;-79
2022/11/11 08:23:59;;;;;;;15.95;11.77;;;;;;;;;;6199111;23;20007;-79
2022/11/11 08:26:25;;;;;;;15.60;10.75;;;;;;;;;;6199983;23;20005;-80
2022/11/11 08:28:52;;;;;;;19.17;11.73;;;;;;;;;;6200707;23;20005;-80
2022/11/11 08:31:18;;;;;;;13.57;10.40;;;;;;;;;;6198169;23;20092;-80
2022/11/11 08:33:45;;;;;;;14.90;10.13;;;;;;;;;;6199901;23;20116;-79
2022/11/11 08:36:11;;;;;;;10.57;9.15;;;;;;;;;;6199521;23;20401;-80
2022/11/11 08:38:38;;;;;;;13.10;8.73;;;;;;;;;;6200251;23;20015;-80
2022/11/11 08:41:05;;;;;;;15.13;9.27;;;;;;;;;;6199222;23;20001;-79
2022/11/11 08:43:32;;;;;;;12.68;9.43;;;;;;;;;;6198048;23;20075;-79
2022/11/11 08:45:58;;;;;;;15.85;9.27;;;;;;;;;;6198984;23;20007;-79
2022/11/11 08:48:24;;;;;;;9.15;8.07;;;;;;;;;;6200844;23;20456;-77
2022/11/11 08:50:52;;;;;;;11.50;8.52;;;;;;;;;;6196662;23;20322;-77
2022/11/11 08:53:18;;;;;;;10.07;7.97;;;;;;;;;;6199849;23;20463;-76
2022/11/11 08:55:44;;;;;;;9.40;7.70;;;;;;;;;;6198987;23;21369;-78
2022/11/11 08:58:10;;;;;;;10.60;7.80;;;;;;;;;;6200136;23;20007;-78
2022/11/11 09:00:36;;;;;;;13.73;8.65;;;;;;;;;;6199543;23;20071;-77
2022/11/11 09:03:07;;;;;;;10.98;8.18;;;;;;;;;;6198973;23;20011;-76
2022/11/11 09:05:33;;;;;;;13.77;8.82;;;;;;;;;;6197503;23;20005;-77
2022/11/11 09:08:05;;;;;;;14.35;8.57;;;;;;;;;;6199473;23;20012;-76
2022/11/11 09:10:32;;;;;;;10.88;7.88;;;;;;;;;;6200148;23;20070;-76
2022/11/11 09:12:58;;;;;;;12.63;9.05;;;;;;;;;;6198613;23;20004;-75
2022/11/11 09:15:25;;;;;;;13.73;8.80;;;;;;;;;;6197858;23;20059;-77
2022/11/11 09:17:52;;;;;;;18.38;10.52;;;;;;;;;;6194430;23;20007;-76
2022/11/11 09:20:18;;;;;;;12.07;9.63;;;;;;;;;;6197119;23;20036;-76
2022/11/11 09:22:48;;;;;;;12.45;9.52;;;;;;;;;;6196277;23;20012;-77
2022/11/11 09:25:15;;;;;;;12.40;9.10;;;;;;;;;;6196831;23;20607;-77
2022/11/11 09:27:42;;;;;;;11.27;8.05;;;;;;;;;;6196023;23;20015;-77
2022/11/11 09:30:09;;;;;;;9.75;6.80;;;;;;;;;;6195146;23;20016;-77
2022/11/11 09:32:35;;;;;;;12.23;7.80;;;;;;;;;;6196544;23;20009;-77
2022/11/11 09:35:02;;;;;;;8.85;6.70;;;;;;;;;;6195716;23;20020;-76
2022/11/11 09:37:28;;;;;;;10.23;6.38;;;;;;;;;;6196692;23;19997;-76
2022/11/11 09:39:57;;;;;;;8.82;5.72;;;;;;;;;;6196347;23;20015;-76
2022/11/11 09:42:49;;;;;;;10.63;5.20;;;;;;;;;;6195055;23;19996;-77
2022/11/11 09:45:15;;;;;;;;;;;;;;;;;;6191887;23;20338;-76
2022/11/11 09:47:45;;;;;;;7.15;4.53;;;;;;;;;;6196340;23;20335;-77
2022/11/11 09:50:13;;;;;;;8.18;4.30;;;;;;;;;;6195448;23;20090;-77
2022/11/11 09:52:42;;;;;;;7.35;4.40;;;;;;;;;;6196136;23;20080;-77
2022/11/11 09:55:08;;;;;;;5.60;4.60;;;;;;;;;;6196845;23;20043;-77
2022/11/11 09:57:58;;;;;;;5.32;4.32;;;;;;;;;;6195971;23;20088;-77
2022/11/11 10:00:32;;;;;;;10.07;5.82;;;;;;;;;;6180032;23;20434;-77
2022/11/11 10:03:10;;;;;;;8.27;5.72;;;;;;;;;;6196433;23;20441;-76
2022/11/11 10:05:36;;;;;;;7.03;4.95;;;;;;;;;;6171046;23;20011;-76
2022/11/11 10:08:10;;;;;;;8.88;5.03;;;;;;;;;;6195929;23;20008;-76
2022/11/11 10:10:43;;;;;;;9.23;4.10;;;;;;;;;;6193591;23;20008;-77
2022/11/11 10:13:13;;;;;;;7.30;4.07;;;;;;;;;;6169673;23;20008;-77
2022/11/11 10:15:43;;;;;;;7.63;4.60;;;;;;;;;;6193743;23;20124;-76
2022/11/11 10:18:21;;;;;;;7.53;4.38;;;;;;;;;;6196884;23;20001;-78
2022/11/11 10:20:50;;;;;;;9.13;4.80;;;;;;;;;;6195899;23;20008;-78
2022/11/11 10:23:18;;;;;;;6.90;5.03;;;;;;;;;;6195902;23;20010;-77
2022/11/11 10:25:59;;;;;;;6.85;5.03;;;;;;;;;;6193890;23;20070;-77
2022/11/11 10:28:28;;;;;;;8.88;4.63;;;;;;;;;;6195374;23;20011;-78
2022/11/11 10:30:55;;;;;;;7.95;4.75;;;;;;;;;;6193635;23;20098;-77
2022/11/11 10:33:28;;;;;;;5.90;4.80;;;;;;;;;;6195439;23;20735;-77
2022/11/11 10:35:56;;;;;;;7.05;4.43;;;;;;;;;;6195587;23;20017;-78
2022/11/11 10:38:22;;;;;;;4.68;3.90;;;;;;;;;;6196272;23;20007;-75
2022/11/11 10:40:57;;;;;;;6.80;4.53;;;;;;;;;;6194416;23;20020;-78
2022/11/11 10:43:23;;;;;;;7.18;4.30;;;;;;;;;;6195990;23;20035;-76
2022/11/11 10:46:01;;;;;;;8.48;4.65;;;;;;;;;;6194810;23;20011;-79
2022/11/11 10:48:43;;;;;;;9.32;4.63;;;;;;;;;;6172280;23;20117;-77
2022/11/11 10:51:09;;;;;;;8.70;5.30;;;;;;;;;;6195857;23;20004;-79
2022/11/11 10:53:40;;;;;;;9.98;4.95;;;;;;;;;;6196242;23;20016;-79
2022/11/11 10:56:18;;;;;;;5.32;4.55;;;;;;;;;;6196984;23;20004;-79
2022/11/11 10:58:48;;;;;;;7.10;5.18;;;;;;;;;;6197580;23;20314;-78
2022/11/11 11:01:17;;;;;;;7.00;5.18;;;;;;;;;;6196636;23;20437;-76
2022/11/11 11:03:45;;;;;;;9.63;5.15;;;;;;;;;;6197175;23;20012;-75
2022/11/11 11:06:11;;;;;;;6.68;4.72;;;;;;;;;;6197401;23;20000;-76
2022/11/11 11:08:56;;;;;;;6.15;4.15;;;;;;;;;;6198280;23;20136;-77
2022/11/11 11:11:22;;;;;;;6.20;4.53;;;;;;;;;;6195227;23;20006;-76
2022/11/11 11:13:51;;;;;;;7.05;4.63;;;;;;;;;;6196894;23;20032;-77
2022/11/11 11:16:20;;;;;;;7.28;4.68;;;;;;;;;;6195334;23;20000;-77
2022/11/11 11:19:06;;;;;;;8.60;5.25;;;;;;;;;;6198426;23;20166;-77
2022/11/11 11:21:48;;;;;;;6.32;4.25;;;;;;;;;;6198069;23;20003;-78
2022/11/11 11:24:22;;;;;;;8.50;4.65;;;;;;;;;;6197989;23;20008;-78
2022/11/11 11:26:51;;;;;;;9.00;4.53;;;;;;;;;;6197381;23;20008;-78
2022/11/11 11:29:25;;;;;;;5.10;4.38;;;;;;;;;;6196824;23;20008;-77
2022/11/11 11:31:52;;;;;;;5.47;4.20;;;;;;;;;;6197801;23;20403;-79
2022/11/11 11:34:18;;;;;;;7.28;4.70;;;;;;;;;;6197752;23;20012;-77
2022/11/11 11:36:58;;;;;;;6.05;4.30;;;;;;;;;;6196832;23;20066;-77
2022/11/11 11:39:38;;;;;;;6.85;4.47;;;;;;;;;;6197075;23;20008;-77
2022/11/11 11:42:05;;;;;;;8.73;4.63;;;;;;;;;;6194902;23;20067;-78
2022/11/11 11:44:32;;;;;;;5.80;4.25;;;;;;;;;;6196927;23;20031;-77
2022/11/11 11:47:05;;;;;;;5.10;4.50;;;;;;;;;;6197329;23;20008;-77
2022/11/11 11:49:46;;;;;;;5.22;4.75;;;;;;;;;;6197878;23;20000;-77
2022/11/11 11:52:31;;;;;;;6.03;4.38;;;;;;;;;;6196949;23;20615;-77
2022/11/11 11:55:06;;;;;;;6.93;4.32;;;;;;;;;;6197098;23;20032;-77
2022/11/11 11:57:35;;;;;;;4.82;4.25;;;;;;;;;;6195519;23;20005;-78
2022/11/11 12:00:04;;;;;;;4.70;4.25;;;;;;;;;;6197977;23;20341;-78
2022/11/11 12:02:47;;;;;;;4.53;4.10;;;;;;;;;;6197903;23;20086;-76
2022/11/11 12:05:13;;;;;;;7.60;4.28;;;;;;;;;;6197858;23;20016;-78
2022/11/11 12:07:52;;;;;;;7.70;4.70;;;;;;;;;;6196975;23;20023;-78
2022/11/11 12:10:31;;;;;;;8.57;4.40;;;;;;;;;;6170018;23;20075;-78
2022/11/11 12:13:03;;;;;;;6.88;4.60;;;;;;;;;;6195714;23;20616;-78
2022/11/11 12:15:48;;;;;;;6.65;4.10;;;;;;;;;;6198048;23;20005;-78
2022/11/11 12:18:26;;;;;;;9.88;4.28;;;;;;;;;;6197619;23;20007;-79
2022/11/11 12:20:55;;;;;;;8.50;4.22;;;;;;;;;;6198008;23;20034;-76
2022/11/11 12:23:37;;;;;;;4.60;4.20;;;;;;;;;;6196893;23;20059;-74
2022/11/11 12:26:07;;;;;;;6.88;4.00;;;;;;;;;;6196018;23;20001;-77
2022/11/11 12:28:48;;;;;;;6.55;4.50;;;;;;;;;;6196948;23;20001;-77
2022/11/11 12:31:14;;;;;;;11.43;4.63;;;;;;;;;;6197736;23;20087;-79
2022/11/11 12:34:01;;;;;;;5.40;4.05;;;;;;;;;;6197850;23;20448;-79
2022/11/11 12:36:57;;;;;;;10.05;4.63;;;;;;;;;;6197383;23;20012;-78
2022/11/11 12:39:37;;;;;;;5.35;4.03;;;;;;;;;;6088477;23;20007;-79
2022/11/11 12:42:12;;;;;;;7.88;4.60;;;;;;;;;;6196966;23;20054;-79
2022/11/11 12:44:48;;;;;;;5.32;3.95;;;;;;;;;;6171596;23;20366;-77
2022/11/11 12:47:20;;;;;;;8.27;4.32;;;;;;;;;;6194696;23;20008;-77
2022/11/11 12:49:46;;;;;;;5.35;3.67;;;;;;;;;;6197511;23;20364;-73
2022/11/11 12:52:15;;;;;;;8.98;4.15;;;;;;;;;;6196911;23;20001;-76
2022/11/11 12:54:48;;;;;;;5.60;3.80;;;;;;;;;;6197623;23;20088;-76
2022/11/11 12:57:24;;;;;;;7.25;3.60;;;;;;;;;;6195388;23;20008;-76
2022/11/11 13:00:12;;;;;;;5.97;3.90;;;;;;;;;;6196528;23;20091;-76
2022/11/11 13:02:50;;;;;;;5.10;3.33;;;;;;;;;;6196957;23;20123;-75
2022/11/11 13:05:20;;;;;;;6.93;3.47;;;;;;;;;;6196919;23;20116;-72
2022/11/11 13:07:47;;;;;;;5.70;4.40;;;;;;;;;;6196428;23;20032;-77
2022/11/11 13:10:13;;;;;;;7.88;4.60;;;;;;;;;;6192758;23;20449;-77
2022/11/11 13:12:43;;;;;;;6.68;3.40;;;;;;;;;;6197221;23;20011;-77
2022/11/11 13:15:15;;;;;;;4.60;3.60;;;;;;;;;;6196538;23;20115;-76
2022/11/11 13:17:41;;;;;;;4.55;3.40;;;;;;;;;;6196340;23;20447;-77
2022/11/11 13:20:38;;;;;;;5.40;3.55;;;;;;;;;;6197074;23;20012;-74
2022/11/11 13:23:08;;;;;;;7.60;4.00;;;;;;;;;;6194231;23;20005;-77
2022/11/11 13:25:36;;;;;;;5.05;3.95;;;;;;;;;;6197285;23;20475;-77
2022/11/11 13:28:28;;;;;;;5.03;4.30;;;;;;;;;;6195151;23;20001;-77
2022/11/11 13:31:07;;;;;;;5.55;3.42;;;;;;;;;;6191540;23;20038;-78
2022/11/11 13:33:54;;;;;;;7.43;4.00;;;;;;;;;;6195146;23;19997;-77
2022/11/11 13:36:22;;;;;;;10.98;4.00;;;;;;;;;;6196983;23;20436;-77
2022/11/11 13:38:51;;;;;;;7.88;4.13;;;;;;;;;;6169844;23;20016;-77
2022/11/11 13:41:23;;;;;;;9.55;4.00;;;;;;;;;;6196658;23;20004;-77
2022/11/11 13:43:50;;;;;;;6.20;3.85;;;;;;;;;;6194489;23;19997;-77
2022/11/11 13:46:52;;;;;;;4.78;3.83;;;;;;;;;;6197122;23;20009;-77
2022/11/11 13:49:38;;;;;;;5.95;4.15;;;;;;;;;;6074776;23;20045;-77
2022/11/11 13:52:06;;;;;;;8.43;3.88;;;;;;;;;;6187340;23;20015;-76
2022/11/11 13:54:41;;;;;;;6.80;4.20;;;;;;;;;;6196293;23;20565;-77
2022/11/11 13:57:13;;;;;;;7.28;3.90;;;;;;;;;;6196247;23;20565;-75
2022/11/11 13:59:42;;;;;;;5.45;3.75;;;;;;;;;;6195078;23;20012;-78
2022/11/11 14:02:18;;;;;;;7.22;4.00;;;;;;;;;;6196803;23;20016;-78
2022/11/11 14:05:03;;;;;;;12.50;4.28;;;;;;;;;;6194679;23;20005;-80
2022/11/11 14:07:46;;;;;;;8.45;4.20;;;;;;;;;;6197076;23;20008;-79
2022/11/11 14:10:18;;;;;;;6.88;3.75;;;;;;;;;;6192373;23;20071;-79
2022/11/11 14:12:47;;;;;;;8.63;4.15;;;;;;;;;;6196547;23;20008;-80
2022/11/11 14:15:32;;;;;;;7.28;4.22;;;;;;;;;;6196627;23;20600;-79
2022/11/11 14:17:59;;;;;;;6.25;3.80;;;;;;;;;;6196096;23;20027;-80
2022/11/11 14:20:34;;;;;;;9.60;3.70;;;;;;;;;;6193969;23;20035;-78
2022/11/11 14:23:19;;;;;;;12.32;4.30;;;;;;;;;;6197899;23;20080;-79
2022/11/11 14:25:46;;;;;;;8.45;4.10;;;;;;;;;;6198330;23;20008;-76
2022/11/11 14:28:39;;;;;;;8.77;4.05;;;;;;;;;;6197930;23;20001;-78
2022/11/11 14:31:17;;;;;;;7.65;4.40;;;;;;;;;;6151604;23;20004;-77
2022/11/11 14:33:46;;;;;;;5.25;3.70;;;;;;;;;;6198044;23;20004;-78
2022/11/11 14:36:32;;;;;;;9.35;4.35;;;;;;;;;;6196290;23;20039;-78
2022/11/11 14:39:03;;;;;;;7.35;4.38;;;;;;;;;;6198134;23;20008;-76
2022/11/11 14:41:58;;;;;;;5.07;4.15;;;;;;;;;;6198451;23;20112;-77
2022/11/11 14:44:34;;;;;;;5.20;3.67;;;;;;;;;;6172811;23;20063;-76
2022/11/11 14:47:03;;;;;;;5.93;3.60;;;;;;;;;;6197641;23;20036;-76
2022/11/11 14:49:51;;;;;;;8.55;4.40;;;;;;;;;;6195961;23;20009;-77
2022/11/11 14:52:17;;;;;;;9.48;4.20;;;;;;;;;;6197449;23;20001;-77
2022/11/11 14:55:02;;;;;;;8.18;3.72;;;;;;;;;;6198050;23;20012;-77
2022/11/11 14:57:40;;;;;;;11.10;4.47;;;;;;;;;;6198747;23;20023;-75
2022/11/11 15:00:14;;;;;;;10.77;3.95;;;;;;;;;;6197110;23;20016;-76
2022/11/11 15:02:46;;;;;;;5.40;3.88;;;;;;;;;;6197464;23;20035;-76
2022/11/11 15:05:15;;;;;;;4.82;4.20;;;;;;;;;;6197689;23;20019;-76
2022/11/11 15:07:44;;;;;;;5.82;4.20;;;;;;;;;;6196629;23;20012;-78
2022/11/11 15:10:27;;;;;;;5.78;4.55;;;;;;;;;;6195546;23;20058;-76
2022/11/11 15:13:09;;;;;;;5.95;3.75;;;;;;;;;;6198224;23;20032;-76
2022/11/11 15:15:38;;;;;;;12.20;4.35;;;;;;;;;;6196924;23;20397;-76
2022/11/11 15:18:16;;;;;;;7.18;4.07;;;;;;;;;;6171600;23;20438;-78
2022/11/11 15:20:51;;;;;;;6.63;4.85;;;;;;;;;;6197155;23;20001;-78
2022/11/11 15:23:31;;;;;;;7.18;4.35;;;;;;;;;;6197916;23;20221;-77
2022/11/11 15:26:06;;;;;;;7.25;3.90;;;;;;;;;;6197015;23;20001;-77
2022/11/11 15:28:32;;;;;;;7.07;4.25;;;;;;;;;;6170359;23;20012;-78
2022/11/11 15:31:04;;;;;;;7.55;4.38;;;;;;;;;;6194383;23;20019;-76
2022/11/11 15:33:46;;;;;;;6.60;3.97;;;;;;;;;;6195577;23;20408;-78
2022/11/11 15:36:15;;;;;;;5.65;4.32;;;;;;;;;;6198227;23;20280;-78
2022/11/11 15:38:42;;;;;;;5.20;4.25;;;;;;;;;;6197397;23;20011;-78
2022/11/11 15:41:19;;;;;;;9.68;4.68;;;;;;;;;;6196409;23;20009;-76
2022/11/11 15:43:46;;;;;;;4.53;3.80;;;;;;;;;;6197692;23;20087;-77
2022/11/11 15:46:18;;;;;;;7.28;4.03;;;;;;;;;;6195979;23;20003;-76
2022/11/11 15:48:45;;;;;;;7.57;3.95;;;;;;;;;;6197084;23;20018;-78
2022/11/11 15:51:17;;;;;;;6.70;4.10;;;;;;;;;;6197411;23;20005;-77
2022/11/11 15:53:43;;;;;;;5.93;4.20;;;;;;;;;;6195150;23;20040;-75
2022/11/11 15:56:10;;;;;;;5.47;4.25;;;;;;;;;;6197554;23;20528;-78
2022/11/11 15:58:36;;;;;;;6.40;4.45;;;;;;;;;;6196211;23;20219;-78
2022/11/11 16:01:03;;;;;;;7.95;4.10;;;;;;;;;;6195727;23;20009;-77
2022/11/11 16:03:32;;;;;;;5.80;4.18;;;;;;;;;;6197048;23;20004;-77
2022/11/11 16:06:00;;;;;;;6.88;4.15;;;;;;;;;;6193882;23;20015;-77
2022/11/11 16:08:26;;;;;;;7.95;4.18;;;;;;;;;;6194922;23;20008;-77
2022/11/11 16:10:54;;;;;;;7.78;4.38;;;;;;;;;;6193046;23;20341;-78
2022/11/11 16:13:21;;;;;;;7.03;4.07;;;;;;;;;;6197321;23;20377;-76
2022/11/11 16:15:47;;;;;;;7.03;4.68;;;;;;;;;;6194229;23;20013;-76